チューリッヒ の空港の天気 - METARとTAF

チューリヒ国際空港 ( LSZH / ZRH ) - スイス チューリッヒ
飛行場実況気象(Metar)
観測時間04/26 18:20 CEST (04/26 16:20 UTC)
風向・風速南 2m/s
視程10km以上
天気現象
少しの雲 雲底高度 580m
全天の8割程度の雲 雲底高度 3660m
気温9℃
湿度76%
気圧1018hPa
METARLSZH 261620Z 19004KT 9999 FEW019 BKN120 09/05 Q1018 NOSIG
過去の天気等 Google飛行場航空写真 Wunderground天気予報

過去48時間のMETAR

飛行場予報(TAF)
発表時間: 4/26 16:25 CEST (4/26 14:25 UTC)
予報対象時間: 26日17時 CEST ~ 27日23時 CEST
風向・風速不定 3m/s
視程10km以上
少しの雲 雲底高度 460m
全天の4割程度の雲 雲底高度 1370m
全天の8割程度の雲 雲底高度 3660m
26日18時 CEST ~ 26日24時 CEST に 確率 30% で一時的に
視程10km以上
なし
27日4時 CEST ~ 27日8時 CEST に徐々に
天気現象しゅう雨
27日8時 CEST ~ 27日11時 CEST に徐々に
風向・風速西南西 5m/s
27日11時 CEST ~ 27日20時 CEST に一時的に
風向・風速西 7m/s 瞬間風速 13m/s
少しの塔状積雲 雲底高度 1220m
27日14時 CEST ~ 27日20時 CEST に一時的に
風向・風速西 9m/s 瞬間風速 18m/s
視程3000m
天気現象強いしゅう雨
TAF LSZH 261425Z 2615/2721 VRB05KT 9999 FEW015 SCT045 BKN120 TX10/2615Z TN05/2705Z TX11/2714Z
PROB30 TEMPO 2616/2622 CAVOK
BECMG 2702/2706 SHRA
BECMG 2706/2709 25010KT
TEMPO 2709/2718 27013G25KT FEW040TCU
TEMPO 2712/2718 28017G35KT 3000 +SHRA